Time;durP1;ratioP1;P1;durP2;ratioP2;P2;SDS_P1;SDS_P2;PMS_P1;PMS_P2;Temp;Humidity;BMP_temperature;BMP_pressure;BME280_temperature;BME280_humidity;BME280_pressure;Samples;Min_cycle;Max_cycle;Signal;HPM_P1;HPM_P2
2023/04/27 00:02:11;;;;;;;0.07;0.07;;;7.50;99.90;;;;;;5062375;28;21011;-81
2023/04/27 00:04:36;;;;;;;0.10;0.10;;;7.60;99.90;;;;;;5063097;28;20278;-81
2023/04/27 00:07:02;;;;;;;0.10;0.10;;;7.60;99.90;;;;;;5060037;28;20208;-81
2023/04/27 00:09:27;;;;;;;0.10;0.10;;;7.70;99.90;;;;;;5063755;28;20186;-81
2023/04/27 00:11:53;;;;;;;0.10;0.10;;;7.70;99.90;;;;;;5059413;28;20681;-80
2023/04/27 00:14:19;;;;;;;0.10;0.10;;;7.70;99.90;;;;;;5059230;28;20273;-80
2023/04/27 00:16:45;;;;;;;0.10;0.10;;;7.60;99.90;;;;;;5063778;28;20253;-81
2023/04/27 00:19:12;;;;;;;0.10;0.10;;;7.30;99.90;;;;;;5059424;28;20185;-81
2023/04/27 00:21:38;;;;;;;0.10;0.10;;;7.20;99.90;;;;;;5058163;28;20195;-81
2023/04/27 00:24:03;;;;;;;0.10;0.10;;;7.20;99.90;;;;;;5062472;28;20560;-81
2023/04/27 00:26:29;;;;;;;0.10;0.10;;;7.20;99.90;;;;;;5065723;28;20208;-81
2023/04/27 00:28:55;;;;;;;0.10;0.10;;;7.20;99.90;;;;;;5061459;28;20210;-81
2023/04/27 00:31:20;;;;;;;0.07;0.07;;;7.20;99.90;;;;;;5065297;28;20185;-80
2023/04/27 00:33:46;;;;;;;0.10;0.10;;;7.20;99.90;;;;;;5063687;28;20212;-81
2023/04/27 00:36:11;;;;;;;0.10;0.10;;;7.20;99.90;;;;;;5065390;28;20215;-81
2023/04/27 00:38:37;;;;;;;0.10;0.10;;;7.10;99.90;;;;;;5064960;28;20271;-80
2023/04/27 00:41:03;;;;;;;0.00;0.00;;;7.00;99.90;;;;;;5066880;28;20290;-80
2023/04/27 00:43:29;;;;;;;0.10;0.10;;;7.00;99.90;;;;;;5061558;28;20246;-81
2023/04/27 00:45:55;;;;;;;0.10;0.10;;;7.10;99.90;;;;;;5061658;28;20214;-81
2023/04/27 00:48:21;;;;;;;0.10;0.10;;;7.10;99.90;;;;;;5063387;28;20196;-80
2023/04/27 00:50:46;;;;;;;0.10;0.10;;;7.20;99.90;;;;;;5065045;28;20190;-81
2023/04/27 00:53:13;;;;;;;0.10;0.10;;;7.10;99.90;;;;;;5064266;28;20192;-81
2023/04/27 00:55:39;;;;;;;0.10;0.10;;;7.20;99.90;;;;;;5064996;28;20191;-80
2023/04/27 00:58:04;;;;;;;0.10;0.10;;;7.30;99.90;;;;;;5062082;28;20219;-81
2023/04/27 01:00:30;;;;;;;0.10;0.10;;;7.30;99.90;;;;;;5067588;28;20294;-82
2023/04/27 01:02:56;;;;;;;0.10;0.10;;;7.20;99.90;;;;;;5065924;28;20207;-81
2023/04/27 01:05:23;;;;;;;0.10;0.10;;;7.10;99.90;;;;;;5065961;28;20219;-80
2023/04/27 01:07:48;;;;;;;0.10;0.10;;;7.10;99.90;;;;;;5062709;28;20269;-81
2023/04/27 01:10:14;;;;;;;0.10;0.10;;;7.00;99.90;;;;;;5066201;28;20709;-81
2023/04/27 01:12:40;;;;;;;0.10;0.10;;;7.00;99.90;;;;;;5061248;28;20217;-81
2023/04/27 01:15:06;;;;;;;0.10;0.10;;;6.90;99.90;;;;;;5064598;28;20196;-81
2023/04/27 01:17:31;;;;;;;0.10;0.10;;;6.90;99.90;;;;;;5066245;28;20234;-81
2023/04/27 01:19:59;;;;;;;0.10;0.10;;;6.90;99.90;;;;;;5064519;28;20220;-82
2023/04/27 01:22:25;;;;;;;0.10;0.10;;;6.80;99.90;;;;;;5062332;28;20626;-81
2023/04/27 01:24:50;;;;;;;0.10;0.10;;;6.80;99.90;;;;;;5059558;28;20189;-81
2023/04/27 01:27:16;;;;;;;0.10;0.10;;;6.70;99.90;;;;;;5059682;28;20192;-81
2023/04/27 01:29:42;;;;;;;0.10;0.10;;;6.50;99.90;;;;;;5069727;28;20192;-80
2023/04/27 01:32:08;;;;;;;0.10;0.10;;;6.40;99.90;;;;;;5068666;28;20265;-81
2023/04/27 01:34:33;;;;;;;0.10;0.10;;;6.50;99.90;;;;;;5066512;28;20247;-81
2023/04/27 01:36:59;;;;;;;0.10;0.10;;;6.40;99.90;;;;;;5071268;28;20268;-81
2023/04/27 01:39:25;;;;;;;0.10;0.10;;;6.40;99.90;;;;;;5066695;28;20179;-80
2023/04/27 01:41:51;;;;;;;0.10;0.10;;;6.40;99.90;;;;;;5064643;28;20434;-81
2023/04/27 01:44:16;;;;;;;0.10;0.10;;;6.20;99.90;;;;;;5068241;28;20195;-81
2023/04/27 01:46:42;;;;;;;0.00;0.00;;;6.10;99.90;;;;;;5070050;28;20223;-81
2023/04/27 01:49:07;;;;;;;0.10;0.10;;;6.00;99.90;;;;;;5066646;28;20198;-82
2023/04/27 01:51:33;;;;;;;0.10;0.10;;;5.90;99.90;;;;;;5069152;28;20179;-83
2023/04/27 01:53:58;;;;;;;0.10;0.10;;;5.90;99.90;;;;;;5067781;28;20210;-81
2023/04/27 01:56:24;;;;;;;0.10;0.10;;;6.00;99.90;;;;;;5066340;28;20205;-81
2023/04/27 01:58:52;;;;;;;0.10;0.10;;;5.90;99.90;;;;;;5071915;28;20207;-81
2023/04/27 02:01:17;;;;;;;0.10;0.10;;;5.70;99.90;;;;;;5064093;28;20192;-81
2023/04/27 02:03:43;;;;;;;0.10;0.10;;;5.60;99.90;;;;;;5065270;28;20210;-81
2023/04/27 02:06:08;;;;;;;0.10;0.10;;;5.50;99.90;;;;;;5066602;28;20229;-81
2023/04/27 02:08:34;;;;;;;0.10;0.10;;;5.40;99.90;;;;;;5069998;28;20204;-82
2023/04/27 02:11:00;;;;;;;0.10;0.10;;;5.40;99.90;;;;;;5069102;28;20191;-81
2023/04/27 02:13:25;;;;;;;0.10;0.10;;;5.40;99.90;;;;;;5069747;28;20189;-81
2023/04/27 02:15:51;;;;;;;0.10;0.10;;;5.50;99.90;;;;;;5065192;28;20197;-81
2023/04/27 02:18:17;;;;;;;0.10;0.10;;;5.50;99.90;;;;;;5068964;28;20201;-81
2023/04/27 02:20:42;;;;;;;0.10;0.10;;;5.60;99.90;;;;;;5069863;28;20269;-81
2023/04/27 02:23:08;;;;;;;0.10;0.10;;;5.50;99.90;;;;;;5069817;28;20190;-81
2023/04/27 02:25:36;;;;;;;0.10;0.10;;;5.50;99.90;;;;;;5068187;28;20242;-81
2023/04/27 02:28:02;;;;;;;0.03;0.03;;;5.40;99.90;;;;;;5067994;28;20228;-82
2023/04/27 02:30:29;;;;;;;0.10;0.10;;;5.40;99.90;;;;;;5070038;28;20188;-81
2023/04/27 02:32:54;;;;;;;0.10;0.10;;;5.60;99.90;;;;;;5068550;28;20330;-81
2023/04/27 02:35:20;;;;;;;0.10;0.10;;;5.70;99.90;;;;;;5067510;28;20305;-81
2023/04/27 02:37:46;;;;;;;0.10;0.10;;;5.80;99.90;;;;;;5072383;28;20262;-81
2023/04/27 02:40:11;;;;;;;0.00;0.00;;;5.80;99.90;;;;;;5071680;28;20188;-81
2023/04/27 02:42:37;;;;;;;0.10;0.10;;;5.80;99.90;;;;;;5067167;28;20179;-81
2023/04/27 02:45:07;;;;;;;0.00;0.00;;;5.60;99.90;;;;;;5070003;28;20264;-82
2023/04/27 02:47:33;;;;;;;0.10;0.10;;;5.40;99.90;;;;;;5073239;28;20194;-81
2023/04/27 02:49:59;;;;;;;0.07;0.07;;;5.40;99.90;;;;;;5069543;28;20187;-83
2023/04/27 02:52:25;;;;;;;0.10;0.10;;;5.30;99.90;;;;;;5075456;28;20280;-83
2023/04/27 02:54:50;;;;;;;0.10;0.10;;;5.20;99.90;;;;;;5069198;28;20664;-83
2023/04/27 02:57:16;;;;;;;0.10;0.10;;;5.20;99.90;;;;;;5063001;28;20609;-82
2023/04/27 02:59:41;;;;;;;0.10;0.10;;;5.20;99.90;;;;;;5064132;28;20194;-82
2023/04/27 03:02:07;;;;;;;0.10;0.10;;;5.20;99.90;;;;;;5063523;28;20260;-83
2023/04/27 03:04:32;;;;;;;0.10;0.10;;;5.40;99.90;;;;;;5063564;28;20199;-83
2023/04/27 03:06:58;;;;;;;0.10;0.10;;;5.60;99.90;;;;;;5062350;28;20328;-83
2023/04/27 03:09:23;;;;;;;0.10;0.10;;;5.80;99.90;;;;;;5058703;28;20277;-82
2023/04/27 03:11:49;;;;;;;0.07;0.07;;;5.90;99.90;;;;;;5060654;28;20182;-81
2023/04/27 03:14:15;;;;;;;0.10;0.10;;;6.00;99.90;;;;;;5060441;28;20186;-82
2023/04/27 03:16:40;;;;;;;0.00;0.00;;;6.10;99.90;;;;;;5058038;28;20213;-82
2023/04/27 03:19:06;;;;;;;0.10;0.10;;;6.00;99.90;;;;;;5062269;28;20181;-82
2023/04/27 03:21:31;;;;;;;0.10;0.10;;;5.90;99.90;;;;;;5062666;28;20254;-82
2023/04/27 03:23:57;;;;;;;0.10;0.10;;;6.00;99.90;;;;;;5063380;28;20186;-83
2023/04/27 03:26:22;;;;;;;0.10;0.10;;;6.10;99.90;;;;;;5060953;28;20206;-82
2023/04/27 03:28:48;;;;;;;0.10;0.10;;;6.10;99.90;;;;;;5061071;28;20623;-82
2023/04/27 03:31:14;;;;;;;0.10;0.10;;;6.20;99.90;;;;;;5064091;28;20741;-81
2023/04/27 03:33:40;;;;;;;0.10;0.10;;;6.30;99.90;;;;;;5064099;28;20696;-81
2023/04/27 03:36:07;;;;;;;0.10;0.10;;;6.40;99.90;;;;;;5065277;28;20196;-82
2023/04/27 03:38:33;;;;;;;0.10;0.10;;;6.40;99.90;;;;;;5065550;28;20212;-81
2023/04/27 03:40:59;;;;;;;0.10;0.10;;;6.40;99.90;;;;;;5064410;28;20251;-82
2023/04/27 03:43:25;;;;;;;0.00;0.00;;;6.40;99.90;;;;;;5059978;28;20178;-83
2023/04/27 03:45:51;;;;;;;0.03;0.03;;;6.40;99.90;;;;;;5063011;28;20222;-83
2023/04/27 03:48:18;;;;;;;0.00;0.00;;;6.40;99.90;;;;;;5066403;28;20199;-84
2023/04/27 03:50:44;;;;;;;0.10;0.10;;;6.40;99.90;;;;;;5059757;28;20187;-83
2023/04/27 03:53:10;;;;;;;0.10;0.10;;;6.30;99.90;;;;;;5065513;28;20182;-83
2023/04/27 03:55:43;;;;;;;0.10;0.10;;;6.30;99.90;;;;;;5060908;28;20703;-83
2023/04/27 03:58:09;;;;;;;0.00;0.00;;;6.40;99.90;;;;;;5065013;28;20214;-83
2023/04/27 04:00:36;;;;;;;0.10;0.10;;;6.50;99.90;;;;;;5062742;28;20231;-85
2023/04/27 04:03:01;;;;;;;0.10;0.10;;;6.60;99.90;;;;;;5064523;28;20251;-83
2023/04/27 04:05:29;;;;;;;0.10;0.10;;;6.70;99.90;;;;;;5055528;28;20212;-83
2023/04/27 04:07:55;;;;;;;0.10;0.10;;;6.70;99.90;;;;;;5063222;28;20302;-84
2023/04/27 04:10:21;;;;;;;0.10;0.10;;;6.70;99.90;;;;;;5058254;28;20269;-83
2023/04/27 04:12:46;;;;;;;0.10;0.10;;;6.70;99.90;;;;;;5056638;28;20743;-83
2023/04/27 04:15:12;;;;;;;0.10;0.10;;;6.60;99.90;;;;;;5058926;28;20193;-84
2023/04/27 04:17:37;;;;;;;0.10;0.10;;;6.60;99.90;;;;;;5063308;28;20200;-84
2023/04/27 04:20:07;;;;;;;0.10;0.10;;;6.60;99.90;;;;;;5056849;28;20200;-83
2023/04/27 04:22:33;;;;;;;0.10;0.10;;;6.60;99.90;;;;;;5054885;28;20196;-83
2023/04/27 04:24:58;;;;;;;0.10;0.10;;;6.70;99.90;;;;;;5059413;28;20552;-83
2023/04/27 04:27:24;;;;;;;0.10;0.10;;;6.70;99.90;;;;;;5055723;28;21194;-84
2023/04/27 04:29:49;;;;;;;0.10;0.10;;;6.70;99.90;;;;;;5058878;28;20180;-82
2023/04/27 04:32:17;;;;;;;0.10;0.10;;;6.70;99.90;;;;;;5057661;28;20198;-83
2023/04/27 04:34:48;;;;;;;0.10;0.10;;;6.60;99.90;;;;;;5060537;28;20211;-83
2023/04/27 04:37:13;;;;;;;0.10;0.10;;;6.60;99.90;;;;;;5063925;28;20770;-83
2023/04/27 04:39:39;;;;;;;0.10;0.10;;;6.60;99.90;;;;;;5064201;28;20278;-83
2023/04/27 04:42:04;;;;;;;0.10;0.10;;;6.70;99.90;;;;;;5059910;28;21111;-83
2023/04/27 04:44:30;;;;;;;0.10;0.10;;;6.70;99.90;;;;;;5064175;28;20563;-84
2023/04/27 04:46:56;;;;;;;0.10;0.10;;;6.80;99.90;;;;;;5061851;28;20428;-83
2023/04/27 04:49:21;;;;;;;0.10;0.10;;;6.70;99.90;;;;;;5059771;28;20665;-83
2023/04/27 04:51:47;;;;;;;0.10;0.10;;;6.80;99.90;;;;;;5061098;28;20182;-83
2023/04/27 04:54:13;;;;;;;0.10;0.10;;;6.90;99.90;;;;;;5059641;28;20191;-83
2023/04/27 04:56:38;;;;;;;0.10;0.10;;;7.00;99.90;;;;;;5060610;28;20198;-82
2023/04/27 04:59:04;;;;;;;0.00;0.00;;;7.10;99.90;;;;;;5068954;28;20278;-83
2023/04/27 05:01:30;;;;;;;0.10;0.10;;;7.20;99.90;;;;;;5070992;28;20211;-82
2023/04/27 05:03:55;;;;;;;0.10;0.10;;;7.30;99.90;;;;;;5073737;28;20310;-82
2023/04/27 05:06:20;;;;;;;0.10;0.10;;;7.40;99.90;;;;;;5070481;28;20219;-83
2023/04/27 05:08:46;;;;;;;0.10;0.10;;;7.50;99.90;;;;;;5067027;28;20216;-83
2023/04/27 05:11:12;;;;;;;0.10;0.10;;;7.60;99.90;;;;;;5063786;28;20188;-83
2023/04/27 05:13:39;;;;;;;0.10;0.10;;;7.70;99.90;;;;;;5064856;28;20724;-83
2023/04/27 05:16:05;;;;;;;0.00;0.00;;;7.80;99.90;;;;;;5062344;28;20196;-84
2023/04/27 05:18:31;;;;;;;0.10;0.10;;;7.80;99.90;;;;;;5067506;28;20209;-84
2023/04/27 05:20:57;;;;;;;0.10;0.10;;;7.90;99.90;;;;;;5068136;28;21250;-86
2023/04/27 05:23:22;;;;;;;0.10;0.10;;;7.80;99.90;;;;;;5063348;28;20321;-85
2023/04/27 05:25:48;;;;;;;0.10;0.10;;;7.80;99.90;;;;;;5065038;28;20231;-83
2023/04/27 05:28:13;;;;;;;0.10;0.10;;;7.90;99.90;;;;;;5061286;28;20213;-85
2023/04/27 05:30:39;;;;;;;0.10;0.10;;;7.90;99.90;;;;;;5062368;28;20553;-83
2023/04/27 05:33:04;;;;;;;0.10;0.10;;;7.90;99.90;;;;;;5060764;28;20189;-84
2023/04/27 05:35:32;;;;;;;0.10;0.10;;;8.00;99.90;;;;;;5057716;28;20196;-84
2023/04/27 05:37:57;;;;;;;0.10;0.10;;;8.00;99.90;;;;;;5061900;28;20201;-84
2023/04/27 05:40:29;;;;;;;0.10;0.10;;;8.00;99.90;;;;;;5065418;28;20237;-84
2023/04/27 05:42:55;;;;;;;0.10;0.10;;;8.10;99.90;;;;;;5059509;28;20192;-85
2023/04/27 05:45:21;;;;;;;0.10;0.10;;;8.10;99.90;;;;;;5066013;28;20236;-86
2023/04/27 05:47:46;;;;;;;0.10;0.10;;;8.10;99.90;;;;;;5065554;28;20216;-85
2023/04/27 05:50:12;;;;;;;0.10;0.10;;;8.20;99.90;;;;;;5058922;28;20195;-87
2023/04/27 05:52:38;;;;;;;0.10;0.10;;;8.20;99.90;;;;;;5066123;28;20191;-84
2023/04/27 05:55:04;;;;;;;0.10;0.10;;;8.20;99.90;;;;;;5065961;28;20184;-84
2023/04/27 05:57:30;;;;;;;0.00;0.00;;;8.20;99.90;;;;;;5067132;28;20678;-84
2023/04/27 05:59:55;;;;;;;0.10;0.10;;;8.20;99.90;;;;;;5062452;28;20241;-85
2023/04/27 06:02:21;;;;;;;0.10;0.10;;;8.20;99.90;;;;;;5062367;28;20456;-85
2023/04/27 06:04:47;;;;;;;0.10;0.10;;;8.30;99.90;;;;;;5064559;28;20196;-85
2023/04/27 06:07:14;;;;;;;0.00;0.00;;;8.30;99.90;;;;;;5063363;28;20223;-83
2023/04/27 06:09:46;;;;;;;0.10;0.10;;;8.50;99.90;;;;;;5064241;28;20184;-85
2023/04/27 06:12:12;;;;;;;0.10;0.10;;;8.60;99.90;;;;;;5061826;28;20180;-85
2023/04/27 06:14:37;;;;;;;0.10;0.10;;;8.70;99.90;;;;;;5061141;28;20295;-84
2023/04/27 06:17:03;;;;;;;0.10;0.10;;;9.00;99.90;;;;;;5063323;28;20266;-85
2023/04/27 06:19:29;;;;;;;0.10;0.10;;;9.10;99.90;;;;;;5064744;28;20184;-86
2023/04/27 06:21:55;;;;;;;0.10;0.10;;;9.20;99.90;;;;;;5060617;28;20196;-86
2023/04/27 06:24:21;;;;;;;0.10;0.10;;;9.40;99.90;;;;;;5057079;28;20185;-85
2023/04/27 06:26:48;;;;;;;0.10;0.10;;;9.60;99.90;;;;;;5057926;28;20223;-85
2023/04/27 06:29:14;;;;;;;0.10;0.10;;;9.60;99.90;;;;;;5062061;28;20177;-85
2023/04/27 06:31:40;;;;;;;0.10;0.10;;;9.80;99.90;;;;;;5058170;28;20560;-83
2023/04/27 06:34:17;;;;;;;0.00;0.00;;;10.00;99.90;;;;;;5061298;28;20176;-85
2023/04/27 06:36:57;;;;;;;0.10;0.10;;;10.10;99.90;;;;;;5065976;28;20227;-85
2023/04/27 06:39:23;;;;;;;0.10;0.10;;;10.20;99.90;;;;;;5064723;28;20181;-85
2023/04/27 06:41:48;;;;;;;0.10;0.10;;;10.50;99.90;;;;;;5060114;28;20196;-85
2023/04/27 06:44:14;;;;;;;0.10;0.10;;;10.90;99.90;;;;;;5060942;28;20188;-85
2023/04/27 06:46:39;;;;;;;0.10;0.10;;;11.20;99.90;;;;;;5061376;28;20197;-84
2023/04/27 06:49:05;;;;;;;0.10;0.10;;;11.10;99.90;;;;;;5065822;28;20213;-85
2023/04/27 06:51:32;;;;;;;0.10;0.10;;;11.60;99.90;;;;;;5055715;28;20730;-85
2023/04/27 06:53:57;;;;;;;0.10;0.10;;;11.70;99.90;;;;;;5057458;28;20554;-83
2023/04/27 06:56:23;;;;;;;0.10;0.10;;;12.00;99.90;;;;;;5057520;28;20181;-83
2023/04/27 06:58:48;;;;;;;0.10;0.10;;;11.80;99.90;;;;;;5056050;28;20185;-82
2023/04/27 07:01:14;;;;;;;0.10;0.10;;;11.30;99.90;;;;;;5059923;28;20193;-83
2023/04/27 07:03:40;;;;;;;0.10;0.10;;;10.80;99.90;;;;;;5060455;28;20284;-84
2023/04/27 07:06:05;;;;;;;0.10;0.10;;;10.60;99.90;;;;;;5065633;28;20357;-83
2023/04/27 07:08:32;;;;;;;0.10;0.10;;;10.50;99.90;;;;;;5066737;28;20192;-84
2023/04/27 07:10:58;;;;;;;0.10;0.10;;;11.00;99.90;;;;;;5062489;28;20203;-82
2023/04/27 07:13:23;;;;;;;0.10;0.10;;;11.10;99.90;;;;;;5057631;28;20654;-82
2023/04/27 07:15:56;;;;;;;0.10;0.10;;;10.90;99.90;;;;;;5065048;28;20185;-82
2023/04/27 07:18:22;;;;;;;0.00;0.00;;;11.10;99.90;;;;;;5058731;28;20216;-83
2023/04/27 07:20:47;;;;;;;0.10;0.10;;;11.40;99.90;;;;;;5063113;28;20655;-84
2023/04/27 07:23:13;;;;;;;0.10;0.10;;;11.30;99.90;;;;;;5059495;28;20204;-84
2023/04/27 07:25:39;;;;;;;0.10;0.10;;;11.40;99.90;;;;;;5058320;28;20243;-83
2023/04/27 07:28:04;;;;;;;0.07;0.07;;;11.80;99.90;;;;;;5062447;28;20216;-84
2023/04/27 07:30:30;;;;;;;0.10;0.10;;;11.90;99.90;;;;;;5065494;28;20183;-83
2023/04/27 07:32:56;;;;;;;0.10;0.10;;;11.90;99.90;;;;;;5058624;28;20195;-83
2023/04/27 07:35:22;;;;;;;0.00;0.00;;;12.30;99.90;;;;;;5056506;28;20181;-83
2023/04/27 07:37:48;;;;;;;0.10;0.10;;;12.60;99.90;;;;;;5058713;28;20224;-84
2023/04/27 07:40:15;;;;;;;0.10;0.10;;;12.30;99.90;;;;;;5058150;28;20662;-84
2023/04/27 07:42:41;;;;;;;0.10;0.10;;;12.40;99.90;;;;;;5056826;28;20185;-83
2023/04/27 07:45:10;;;;;;;0.10;0.10;;;12.30;99.90;;;;;;5057179;28;20178;-84
2023/04/27 07:47:37;;;;;;;0.10;0.10;;;12.50;99.90;;;;;;5056269;28;20716;-84
2023/04/27 07:50:05;;;;;;;0.07;0.07;;;13.00;99.90;;;;;;5055312;28;20193;-83
2023/04/27 07:52:31;;;;;;;0.10;0.10;;;12.60;99.90;;;;;;5051394;28;20638;-84
2023/04/27 07:54:57;;;;;;;0.10;0.10;;;12.10;99.90;;;;;;5050833;28;20181;-83
2023/04/27 07:57:22;;;;;;;0.10;0.10;;;12.20;99.90;;;;;;5052650;28;20209;-83
2023/04/27 07:59:48;;;;;;;0.10;0.10;;;12.00;99.90;;;;;;5051341;28;20712;-83
2023/04/27 08:02:13;;;;;;;0.10;0.10;;;12.30;99.90;;;;;;5053215;28;20186;-82
2023/04/27 08:04:39;;;;;;;0.00;0.00;;;13.00;99.90;;;;;;5054276;28;20275;-81
2023/04/27 08:07:05;;;;;;;0.10;0.10;;;13.10;99.90;;;;;;5057000;28;20237;-81
2023/04/27 08:09:31;;;;;;;0.10;0.10;;;13.40;99.90;;;;;;5060905;28;20588;-82
2023/04/27 08:11:57;;;;;;;0.10;0.10;;;13.40;99.90;;;;;;5063588;28;20192;-81
2023/04/27 08:14:23;;;;;;;0.10;0.10;;;13.70;99.90;;;;;;5058515;28;20179;-82
2023/04/27 08:16:50;;;;;;;0.10;0.10;;;14.10;99.90;;;;;;5058143;28;20211;-81
2023/04/27 08:19:16;;;;;;;0.10;0.10;;;13.70;99.90;;;;;;5058380;28;21248;-81
2023/04/27 08:21:41;;;;;;;0.00;0.00;;;13.50;99.90;;;;;;5057752;28;20198;-81
2023/04/27 08:24:07;;;;;;;0.00;0.00;;;14.00;99.90;;;;;;5056009;28;20203;-81
2023/04/27 08:26:34;;;;;;;0.10;0.10;;;14.20;99.90;;;;;;5058025;28;20216;-81
2023/04/27 08:28:59;;;;;;;0.10;0.10;;;14.10;99.90;;;;;;5061472;28;20186;-80
2023/04/27 08:31:25;;;;;;;0.10;0.10;;;14.30;99.90;;;;;;5066114;28;20192;-81
2023/04/27 08:33:52;;;;;;;0.10;0.10;;;14.70;99.90;;;;;;5059150;28;20211;-81
2023/04/27 08:36:23;;;;;;;0.00;0.00;;;14.90;99.90;;;;;;5043554;28;20200;-81
2023/04/27 08:38:49;;;;;;;0.10;0.10;;;14.80;99.90;;;;;;5046568;28;20313;-80
2023/04/27 08:41:22;;;;;;;0.10;0.10;;;14.30;99.90;;;;;;5045180;28;20191;-81
2023/04/27 08:43:50;;;;;;;0.10;0.10;;;14.20;99.90;;;;;;5051812;28;20257;-81
2023/04/27 08:46:25;;;;;;;0.10;0.10;;;14.00;99.90;;;;;;5060462;28;20257;-80
2023/04/27 08:48:52;;;;;;;0.10;0.10;;;14.10;99.90;;;;;;5074528;28;20192;-80
2023/04/27 08:51:18;;;;;;;0.10;0.10;;;14.10;99.90;;;;;;5062425;28;20235;-80
2023/04/27 08:53:51;;;;;;;0.10;0.10;;;14.50;99.90;;;;;;5063243;28;20196;-80
2023/04/27 08:56:17;;;;;;;0.10;0.10;;;14.80;99.90;;;;;;5062911;28;20231;-80
2023/04/27 08:58:43;;;;;;;0.10;0.10;;;13.90;99.90;;;;;;5054916;28;20213;-81
2023/04/27 09:01:09;;;;;;;0.10;0.10;;;14.50;99.90;;;;;;5063817;28;20200;-80
2023/04/27 09:03:36;;;;;;;0.10;0.10;;;13.90;99.90;;;;;;5057949;28;20725;-80
2023/04/27 09:06:05;;;;;;;0.10;0.10;;;14.60;99.90;;;;;;5063715;28;20211;-80
2023/04/27 09:08:47;;;;;;;0.10;0.10;;;15.00;99.90;;;;;;5057975;28;20719;-80
2023/04/27 09:11:15;;;;;;;0.10;0.10;;;14.10;99.90;;;;;;5055948;28;20187;-80
2023/04/27 09:13:43;;;;;;;0.10;0.10;;;14.60;99.90;;;;;;5057292;28;20709;-82
2023/04/27 09:16:11;;;;;;;0.10;0.10;;;14.60;99.90;;;;;;5063766;28;20195;-81
2023/04/27 09:18:40;;;;;;;0.10;0.10;;;14.90;99.90;;;;;;5064576;28;20220;-82
2023/04/27 09:21:05;;;;;;;0.10;0.10;;;14.00;99.90;;;;;;5062916;28;20181;-82
2023/04/27 09:23:36;;;;;;;0.10;0.10;;;13.80;99.90;;;;;;5058909;28;20232;-81
2023/04/27 09:26:07;;;;;;;0.10;0.10;;;14.20;99.90;;;;;;5062612;28;20222;-82
2023/04/27 09:28:34;;;;;;;0.10;0.10;;;14.80;99.90;;;;;;5065589;28;20287;-81
2023/04/27 09:31:01;;;;;;;0.10;0.10;;;14.80;99.90;;;;;;5062902;28;20557;-81
2023/04/27 09:33:29;;;;;;;0.10;0.10;;;14.60;99.90;;;;;;5060232;28;20275;-81
2023/04/27 09:35:56;;;;;;;0.10;0.10;;;14.90;99.90;;;;;;5057451;28;20196;-82
2023/04/27 09:38:22;;;;;;;0.10;0.10;;;14.80;99.90;;;;;;5056668;28;20200;-81
2023/04/27 09:40:49;;;;;;;0.10;0.10;;;15.30;99.90;;;;;;5059966;28;20288;-82
2023/04/27 09:43:15;;;;;;;0.10;0.10;;;15.50;99.90;;;;;;5064497;28;20254;-83
2023/04/27 09:45:41;;;;;;;0.10;0.10;;;16.00;99.90;;;;;;5062032;28;20682;-82
2023/04/27 09:48:08;;;;;;;0.10;0.10;;;15.80;99.90;;;;;;5062412;28;20201;-82
2023/04/27 09:50:38;;;;;;;0.03;0.03;;;15.90;99.90;;;;;;5059760;28;20177;-82
2023/04/27 09:53:07;;;;;;;0.10;0.10;;;15.80;99.90;;;;;;5065437;28;20638;-82
2023/04/27 09:55:44;;;;;;;0.10;0.10;;;15.50;99.90;;;;;;5058959;28;20192;-82
2023/04/27 09:58:44;;;;;;;0.10;0.10;;;15.90;99.90;;;;;;5061901;28;20789;-82
2023/04/27 10:01:49;;;;;;;0.10;0.10;;;16.20;99.90;;;;;;5061830;28;20291;-82
2023/04/27 10:04:49;;;;;;;0.10;0.10;;;16.40;99.90;;;;;;5044113;28;20197;-82
2023/04/27 10:07:16;;;;;;;0.10;0.10;;;15.90;99.90;;;;;;5060738;28;20217;-82
2023/04/27 10:09:45;;;;;;;0.10;0.10;;;15.90;99.90;;;;;;5056194;28;21693;-82
2023/04/27 10:12:21;;;;;;;0.10;0.10;;;15.30;99.90;;;;;;5059514;28;21259;-82
2023/04/27 10:14:55;;;;;;;0.10;0.10;;;15.70;99.90;;;;;;5058983;28;20184;-82
2023/04/27 10:17:35;;;;;;;0.10;0.10;;;16.00;99.90;;;;;;5059337;28;20315;-82
2023/04/27 10:20:06;;;;;;;0.10;0.10;;;16.20;99.90;;;;;;5058349;28;20216;-82
2023/04/27 10:22:40;;;;;;;0.10;0.10;;;15.90;99.90;;;;;;5059199;28;20191;-82
2023/04/27 10:25:27;;;;;;;0.10;0.10;;;16.70;99.90;;;;;;5060245;28;20176;-82
2023/04/27 10:28:01;;;;;;;0.10;0.10;;;17.10;99.90;;;;;;5063273;28;20563;-83
2023/04/27 10:30:35;;;;;;;0.10;0.10;;;17.50;99.90;;;;;;5058572;28;20191;-83
2023/04/27 10:33:07;;;;;;;0.10;0.10;;;17.50;99.90;;;;;;5062772;28;20184;-82
2023/04/27 10:35:35;;;;;;;0.10;0.10;;;17.10;99.90;;;;;;5057688;28;20181;-82
2023/04/27 10:38:08;;;;;;;0.10;0.10;;;16.70;99.90;;;;;;5060601;28;20205;-82
2023/04/27 10:40:36;;;;;;;0.10;0.10;;;16.80;99.90;;;;;;5063189;28;20665;-82
2023/04/27 10:43:12;;;;;;;0.10;0.10;;;16.20;99.90;;;;;;5061553;28;20190;-82
2023/04/27 10:45:39;;;;;;;0.10;0.10;;;17.10;99.90;;;;;;5060786;28;20736;-83
2023/04/27 10:48:05;;;;;;;0.10;0.10;;;16.80;99.90;;;;;;5057653;28;20584;-82
2023/04/27 10:50:31;;;;;;;0.10;0.10;;;17.50;99.90;;;;;;5059560;28;20213;-81
2023/04/27 10:53:02;;;;;;;0.10;0.10;;;17.70;99.90;;;;;;5055143;28;20178;-81
2023/04/27 10:55:29;;;;;;;0.10;0.10;;;17.50;99.90;;;;;;5061824;28;20272;-82
2023/04/27 10:57:56;;;;;;;0.10;0.10;;;17.40;99.90;;;;;;5063444;28;20265;-82
2023/04/27 11:00:30;;;;;;;0.10;0.10;;;17.90;99.90;;;;;;5058157;28;20749;-82
2023/04/27 11:03:08;;;;;;;0.10;0.10;;;18.40;99.90;;;;;;5057913;28;20692;-82
2023/04/27 11:05:34;;;;;;;0.10;0.10;;;18.60;99.90;;;;;;5062294;28;20231;-82
2023/04/27 11:08:20;;;;;;;0.10;0.10;;;18.80;99.90;;;;;;5051404;28;20373;-82
2023/04/27 11:10:48;;;;;;;0.10;0.10;;;18.70;99.90;;;;;;5059267;28;20204;-82
2023/04/27 11:13:19;;;;;;;0.10;0.10;;;17.90;99.90;;;;;;5062255;28;20196;-82
2023/04/27 11:15:56;;;;;;;0.10;0.10;;;16.70;99.90;;;;;;5056721;28;20223;-83
2023/04/27 11:18:28;;;;;;;0.10;0.10;;;16.90;99.90;;;;;;5061726;28;20209;-82
2023/04/27 11:21:11;;;;;;;0.10;0.10;;;17.30;99.90;;;;;;5063647;28;20169;-82
2023/04/27 11:23:38;;;;;;;0.10;0.10;;;18.10;99.90;;;;;;5058700;28;20177;-81
2023/04/27 11:26:22;;;;;;;0.10;0.10;;;18.40;99.90;;;;;;5060720;28;20572;-82
2023/04/27 11:28:59;;;;;;;0.10;0.10;;;18.90;99.90;;;;;;5062238;28;20242;-81
2023/04/27 11:31:42;;;;;;;0.10;0.10;;;18.40;99.90;;;;;;5060929;28;20337;-82
2023/04/27 11:34:15;;;;;;;0.10;0.10;;;18.80;99.90;;;;;;5061419;28;20537;-82
2023/04/27 11:36:40;;;;;;;0.10;0.10;;;19.00;99.90;;;;;;5063386;28;20184;-82
2023/04/27 11:39:06;;;;;;;0.10;0.10;;;18.40;99.90;;;;;;5058125;28;20685;-82
2023/04/27 11:41:36;;;;;;;0.10;0.10;;;18.60;99.90;;;;;;5059858;28;20179;-82
2023/04/27 11:44:06;;;;;;;0.10;0.10;;;18.40;99.90;;;;;;5064182;28;20205;-82
2023/04/27 11:46:35;;;;;;;0.10;0.10;;;18.00;99.90;;;;;;5059519;28;20204;-82
2023/04/27 11:49:03;;;;;;;0.10;0.10;;;18.70;99.90;;;;;;5061802;28;20175;-82
2023/04/27 11:51:31;;;;;;;0.10;0.10;;;18.70;99.90;;;;;;5055108;28;20208;-83
2023/04/27 11:54:06;;;;;;;0.10;0.10;;;19.20;99.90;;;;;;5056845;28;20185;-83
2023/04/27 11:56:36;;;;;;;0.10;0.10;;;19.50;99.90;;;;;;5055159;28;20263;-81
2023/04/27 11:59:03;;;;;;;0.10;0.10;;;19.60;99.90;;;;;;5059799;28;20191;-82
2023/04/27 12:01:33;;;;;;;0.10;0.10;;;19.40;99.90;;;;;;5056620;28;21065;-82
2023/04/27 12:04:00;;;;;;;0.10;0.10;;;19.60;99.90;;;;;;5062623;28;20612;-82
2023/04/27 12:06:27;;;;;;;0.10;0.10;;;19.90;99.90;;;;;;5061590;28;20632;-82
2023/04/27 12:08:54;;;;;;;0.10;0.10;;;19.60;99.90;;;;;;5056234;28;20292;-83
2023/04/27 12:11:20;;;;;;;0.10;0.10;;;19.90;99.90;;;;;;5056660;28;20279;-82
2023/04/27 12:13:47;;;;;;;0.10;0.10;;;20.10;99.90;;;;;;5054286;28;20218;-83
2023/04/27 12:16:12;;;;;;;0.10;0.10;;;20.30;99.90;;;;;;5054666;28;20246;-83
2023/04/27 12:18:38;;;;;;;0.10;0.10;;;20.40;99.90;;;;;;5054569;28;20201;-82
2023/04/27 12:21:06;;;;;;;0.10;0.10;;;20.60;99.90;;;;;;5056138;28;20212;-83
2023/04/27 12:23:32;;;;;;;0.10;0.10;;;20.30;99.90;;;;;;5061087;28;20176;-83
2023/04/27 12:25:58;;;;;;;0.10;0.10;;;20.00;99.90;;;;;;5056875;28;20254;-83
2023/04/27 12:28:23;;;;;;;0.10;0.10;;;19.80;99.90;;;;;;5056409;28;20193;-82
2023/04/27 12:30:49;;;;;;;0.10;0.10;;;20.10;99.90;;;;;;5055543;28;20205;-81
2023/04/27 12:33:15;;;;;;;0.10;0.10;;;19.20;99.90;;;;;;5056203;28;20189;-83
2023/04/27 12:35:41;;;;;;;0.10;0.10;;;19.50;99.90;;;;;;5052812;28;20200;-82
2023/04/27 12:38:07;;;;;;;0.10;0.10;;;19.10;99.90;;;;;;5059400;28;20208;-82
2023/04/27 12:40:32;;;;;;;0.10;0.10;;;19.70;99.90;;;;;;5061335;28;20191;-82
2023/04/27 12:42:58;;;;;;;0.10;0.10;;;19.80;99.90;;;;;;5061983;28;20185;-83
2023/04/27 12:45:24;;;;;;;0.10;0.10;;;20.30;99.90;;;;;;5057949;28;20212;-82
2023/04/27 12:47:50;;;;;;;0.10;0.10;;;20.50;99.90;;;;;;5057820;28;20282;-82
2023/04/27 12:50:15;;;;;;;0.10;0.10;;;20.30;99.90;;;;;;5053849;28;20787;-82
2023/04/27 12:52:41;;;;;;;0.10;0.10;;;19.80;99.90;;;;;;5060478;28;20189;-83
2023/04/27 12:55:08;;;;;;;0.10;0.10;;;18.80;99.90;;;;;;5061181;28;20177;-83